sensor_id;sensor_type;location;lat;lon;timestamp;P1;P2;P0
66195;PMS7003;53000;45.182;5.736;2023-11-22T00:02:20;2.33;2.33;2.00
66195;PMS7003;53000;45.182;5.736;2023-11-22T00:04:45;3.00;2.33;2.00
66195;PMS7003;53000;45.182;5.736;2023-11-22T00:07:11;3.33;3.00;3.00
66195;PMS7003;53000;45.182;5.736;2023-11-22T00:09:37;3.67;3.67;3.00
66195;PMS7003;53000;45.182;5.736;2023-11-22T00:12:02;5.33;3.00;2.33
66195;PMS7003;53000;45.182;5.736;2023-11-22T00:14:28;4.67;4.00;3.33
66195;PMS7003;53000;45.182;5.736;2023-11-22T00:16:53;5.33;3.33;2.33
66195;PMS7003;53000;45.182;5.736;2023-11-22T00:19:19;5.00;4.00;3.00
66195;PMS7003;53000;45.182;5.736;2023-11-22T00:21:47;2.67;2.67;2.00
66195;PMS7003;53000;45.182;5.736;2023-11-22T00:24:13;4.00;4.00;3.00
66195;PMS7003;53000;45.182;5.736;2023-11-22T00:26:38;4.00;4.00;3.67
66195;PMS7003;53000;45.182;5.736;2023-11-22T00:29:04;3.67;3.67;3.00
66195;PMS7003;53000;45.182;5.736;2023-11-22T00:31:30;4.00;4.00;3.00
66195;PMS7003;53000;45.182;5.736;2023-11-22T00:33:55;9.33;3.33;3.00
66195;PMS7003;53000;45.182;5.736;2023-11-22T00:36:21;4.00;4.00;3.33
66195;PMS7003;53000;45.182;5.736;2023-11-22T00:38:46;6.67;6.00;5.00
66195;PMS7003;53000;45.182;5.736;2023-11-22T00:41:12;4.00;4.00;3.00
66195;PMS7003;53000;45.182;5.736;2023-11-22T00:43:39;6.00;4.00;3.67
66195;PMS7003;53000;45.182;5.736;2023-11-22T00:46:05;5.50;5.50;3.50
66195;PMS7003;53000;45.182;5.736;2023-11-22T00:48:31;3.67;3.67;2.67
66195;PMS7003;53000;45.182;5.736;2023-11-22T00:50:56;3.00;3.00;2.00
66195;PMS7003;53000;45.182;5.736;2023-11-22T00:53:21;4.00;3.00;3.00
66195;PMS7003;53000;45.182;5.736;2023-11-22T00:55:48;2.00;2.00;2.00
66195;PMS7003;53000;45.182;5.736;2023-11-22T00:58:13;4.67;4.33;4.00
66195;PMS7003;53000;45.182;5.736;2023-11-22T01:00:39;5.00;3.67;3.00
66195;PMS7003;53000;45.182;5.736;2023-11-22T01:03:04;5.00;5.00;4.00
66195;PMS7003;53000;45.182;5.736;2023-11-22T01:05:30;4.00;4.00;3.00
66195;PMS7003;53000;45.182;5.736;2023-11-22T01:07:55;4.00;3.33;3.00
66195;PMS7003;53000;45.182;5.736;2023-11-22T01:10:21;4.67;4.00;4.00
66195;PMS7003;53000;45.182;5.736;2023-11-22T01:12:47;4.33;4.00;3.33
66195;PMS7003;53000;45.182;5.736;2023-11-22T01:15:13;4.00;4.00;3.33
66195;PMS7003;53000;45.182;5.736;2023-11-22T01:17:39;4.00;4.00;3.00
66195;PMS7003;53000;45.182;5.736;2023-11-22T01:20:04;3.00;3.00;2.00
66195;PMS7003;53000;45.182;5.736;2023-11-22T01:22:30;4.00;4.00;3.00
66195;PMS7003;53000;45.182;5.736;2023-11-22T01:24:56;5.67;3.33;3.00
66195;PMS7003;53000;45.182;5.736;2023-11-22T01:27:21;3.67;3.00;3.00
66195;PMS7003;53000;45.182;5.736;2023-11-22T01:29:47;4.33;3.33;3.00
66195;PMS7003;53000;45.182;5.736;2023-11-22T01:32:12;2.00;2.00;2.00
66195;PMS7003;53000;45.182;5.736;2023-11-22T01:34:37;2.00;2.00;2.00
66195;PMS7003;53000;45.182;5.736;2023-11-22T01:37:03;1.67;1.67;1.33
66195;PMS7003;53000;45.182;5.736;2023-11-22T01:39:28;4.00;3.67;3.00
66195;PMS7003;53000;45.182;5.736;2023-11-22T01:41:54;3.00;2.00;2.00
66195;PMS7003;53000;45.182;5.736;2023-11-22T01:44:19;4.00;4.00;3.00
66195;PMS7003;53000;45.182;5.736;2023-11-22T01:46:44;2.33;2.33;2.00
66195;PMS7003;53000;45.182;5.736;2023-11-22T01:49:11;3.00;2.00;2.00
66195;PMS7003;53000;45.182;5.736;2023-11-22T01:51:40;6.00;5.33;5.00
66195;PMS7003;53000;45.182;5.736;2023-11-22T01:54:06;4.67;3.00;3.00
66195;PMS7003;53000;45.182;5.736;2023-11-22T01:56:33;6.00;6.00;5.00
66195;PMS7003;53000;45.182;5.736;2023-11-22T01:59:02;3.00;3.00;1.67
66195;PMS7003;53000;45.182;5.736;2023-11-22T02:01:28;6.00;5.33;4.00
66195;PMS7003;53000;45.182;5.736;2023-11-22T02:03:54;4.67;3.00;3.00
66195;PMS7003;53000;45.182;5.736;2023-11-22T02:06:20;4.00;4.00;3.00
66195;PMS7003;53000;45.182;5.736;2023-11-22T02:08:46;4.00;4.00;3.00
66195;PMS7003;53000;45.182;5.736;2023-11-22T02:11:12;7.33;5.00;4.00
66195;PMS7003;53000;45.182;5.736;2023-11-22T02:13:38;4.00;4.00;3.00
66195;PMS7003;53000;45.182;5.736;2023-11-22T02:16:03;5.00;3.67;3.00
66195;PMS7003;53000;45.182;5.736;2023-11-22T02:18:29;4.00;4.00;3.00
66195;PMS7003;53000;45.182;5.736;2023-11-22T02:20:55;4.33;4.00;3.00
66195;PMS7003;53000;45.182;5.736;2023-11-22T02:23:21;4.00;4.00;4.00
66195;PMS7003;53000;45.182;5.736;2023-11-22T02:25:47;5.00;4.00;4.00
66195;PMS7003;53000;45.182;5.736;2023-11-22T02:28:12;6.00;5.00;4.00
66195;PMS7003;53000;45.182;5.736;2023-11-22T02:30:38;5.67;4.00;3.00
66195;PMS7003;53000;45.182;5.736;2023-11-22T02:33:03;4.33;4.33;3.67
66195;PMS7003;53000;45.182;5.736;2023-11-22T02:35:32;1.00;1.00;0.00
66195;PMS7003;53000;45.182;5.736;2023-11-22T02:37:58;4.00;4.00;3.67
66195;PMS7003;53000;45.182;5.736;2023-11-22T02:40:24;6.00;5.00;4.00
66195;PMS7003;53000;45.182;5.736;2023-11-22T02:42:50;6.00;6.00;4.00
66195;PMS7003;53000;45.182;5.736;2023-11-22T02:45:18;5.00;5.00;4.00
66195;PMS7003;53000;45.182;5.736;2023-11-22T02:47:50;6.33;4.00;3.67
66195;PMS7003;53000;45.182;5.736;2023-11-22T02:50:17;3.67;3.67;3.00
66195;PMS7003;53000;45.182;5.736;2023-11-22T02:52:43;6.67;6.00;4.33
66195;PMS7003;53000;45.182;5.736;2023-11-22T02:55:08;5.00;5.00;4.00
66195;PMS7003;53000;45.182;5.736;2023-11-22T02:57:34;3.33;3.33;3.00
66195;PMS7003;53000;45.182;5.736;2023-11-22T03:00:01;5.00;5.00;4.00
66195;PMS7003;53000;45.182;5.736;2023-11-22T03:02:29;3.33;2.00;2.00
66195;PMS7003;53000;45.182;5.736;2023-11-22T03:04:54;5.67;4.00;3.00
66195;PMS7003;53000;45.182;5.736;2023-11-22T03:07:20;3.00;3.00;3.00
66195;PMS7003;53000;45.182;5.736;2023-11-22T03:09:45;5.00;5.00;4.00
66195;PMS7003;53000;45.182;5.736;2023-11-22T03:12:11;5.33;4.00;4.00
66195;PMS7003;53000;45.182;5.736;2023-11-22T03:14:38;6.67;4.00;4.00
66195;PMS7003;53000;45.182;5.736;2023-11-22T03:17:03;5.00;5.00;4.33
66195;PMS7003;53000;45.182;5.736;2023-11-22T03:19:29;5.00;5.00;4.00
66195;PMS7003;53000;45.182;5.736;2023-11-22T03:21:54;4.00;4.00;3.67
66195;PMS7003;53000;45.182;5.736;2023-11-22T03:24:21;6.00;6.00;5.00
66195;PMS7003;53000;45.182;5.736;2023-11-22T03:26:46;9.00;6.00;5.00
66195;PMS7003;53000;45.182;5.736;2023-11-22T03:29:13;6.00;4.00;2.33
66195;PMS7003;53000;45.182;5.736;2023-11-22T03:31:41;9.00;5.00;5.00
66195;PMS7003;53000;45.182;5.736;2023-11-22T03:34:07;6.00;5.00;4.33
66195;PMS7003;53000;45.182;5.736;2023-11-22T03:36:32;6.00;5.00;4.00
66195;PMS7003;53000;45.182;5.736;2023-11-22T03:38:58;5.33;5.00;4.00
66195;PMS7003;53000;45.182;5.736;2023-11-22T03:41:23;6.00;5.00;3.33
66195;PMS7003;53000;45.182;5.736;2023-11-22T03:43:49;4.33;4.33;4.00
66195;PMS7003;53000;45.182;5.736;2023-11-22T03:46:14;5.00;5.00;4.00
66195;PMS7003;53000;45.182;5.736;2023-11-22T03:48:40;5.00;5.00;4.00
66195;PMS7003;53000;45.182;5.736;2023-11-22T03:51:05;6.00;5.00;4.00
66195;PMS7003;53000;45.182;5.736;2023-11-22T03:53:31;3.67;3.00;2.00
66195;PMS7003;53000;45.182;5.736;2023-11-22T03:55:57;3.33;3.33;3.00
66195;PMS7003;53000;45.182;5.736;2023-11-22T03:58:22;5.33;5.00;4.00
66195;PMS7003;53000;45.182;5.736;2023-11-22T04:00:47;5.00;5.00;4.00
66195;PMS7003;53000;45.182;5.736;2023-11-22T04:03:13;4.00;4.00;4.00
66195;PMS7003;53000;45.182;5.736;2023-11-22T04:05:38;8.33;5.00;4.00
66195;PMS7003;53000;45.182;5.736;2023-11-22T04:08:04;9.00;5.00;4.00
66195;PMS7003;53000;45.182;5.736;2023-11-22T04:10:29;7.67;5.00;4.00
66195;PMS7003;53000;45.182;5.736;2023-11-22T04:12:55;6.33;5.00;4.00
66195;PMS7003;53000;45.182;5.736;2023-11-22T04:15:21;4.00;4.00;3.00
66195;PMS7003;53000;45.182;5.736;2023-11-22T04:17:47;10.00;3.00;3.00
66195;PMS7003;53000;45.182;5.736;2023-11-22T04:20:12;6.00;5.00;4.00
66195;PMS7003;53000;45.182;5.736;2023-11-22T04:22:40;6.67;6.00;5.00
66195;PMS7003;53000;45.182;5.736;2023-11-22T04:25:06;5.00;5.00;3.33
66195;PMS7003;53000;45.182;5.736;2023-11-22T04:27:33;3.00;3.00;3.00
66195;PMS7003;53000;45.182;5.736;2023-11-22T04:29:59;4.33;4.00;4.00
66195;PMS7003;53000;45.182;5.736;2023-11-22T04:32:24;5.00;4.00;3.33
66195;PMS7003;53000;45.182;5.736;2023-11-22T04:34:49;4.67;3.00;3.00
66195;PMS7003;53000;45.182;5.736;2023-11-22T04:37:15;4.67;4.67;4.00
66195;PMS7003;53000;45.182;5.736;2023-11-22T04:39:40;6.00;4.33;4.00
66195;PMS7003;53000;45.182;5.736;2023-11-22T04:42:05;5.33;5.00;4.00
66195;PMS7003;53000;45.182;5.736;2023-11-22T04:44:31;5.00;5.00;4.00
66195;PMS7003;53000;45.182;5.736;2023-11-22T04:46:59;10.67;5.33;4.00
66195;PMS7003;53000;45.182;5.736;2023-11-22T04:49:25;4.67;4.00;3.00
66195;PMS7003;53000;45.182;5.736;2023-11-22T04:51:50;5.00;5.00;4.00
66195;PMS7003;53000;45.182;5.736;2023-11-22T04:54:16;4.67;4.00;3.00
66195;PMS7003;53000;45.182;5.736;2023-11-22T04:56:41;5.33;5.33;3.33
66195;PMS7003;53000;45.182;5.736;2023-11-22T04:59:06;6.33;6.00;5.00
66195;PMS7003;53000;45.182;5.736;2023-11-22T05:01:32;6.00;6.00;4.00
66195;PMS7003;53000;45.182;5.736;2023-11-22T05:03:58;5.00;5.00;4.00
66195;PMS7003;53000;45.182;5.736;2023-11-22T05:06:24;5.67;5.00;4.00
66195;PMS7003;53000;45.182;5.736;2023-11-22T05:08:51;5.67;5.33;5.00
66195;PMS7003;53000;45.182;5.736;2023-11-22T05:11:17;4.00;4.00;3.67
66195;PMS7003;53000;45.182;5.736;2023-11-22T05:13:42;3.33;3.33;2.67
66195;PMS7003;53000;45.182;5.736;2023-11-22T05:16:08;6.00;4.00;4.00
66195;PMS7003;53000;45.182;5.736;2023-11-22T05:18:34;6.00;6.00;4.00
66195;PMS7003;53000;45.182;5.736;2023-11-22T05:21:00;5.00;5.00;4.00
66195;PMS7003;53000;45.182;5.736;2023-11-22T05:23:26;6.00;6.00;4.00
66195;PMS7003;53000;45.182;5.736;2023-11-22T05:25:51;7.33;5.00;4.00
66195;PMS7003;53000;45.182;5.736;2023-11-22T05:28:17;5.00;5.00;4.00
66195;PMS7003;53000;45.182;5.736;2023-11-22T05:30:42;5.00;5.00;4.00
66195;PMS7003;53000;45.182;5.736;2023-11-22T05:33:08;6.67;5.00;4.00
66195;PMS7003;53000;45.182;5.736;2023-11-22T05:35:33;6.33;5.33;4.00
66195;PMS7003;53000;45.182;5.736;2023-11-22T05:37:59;9.00;5.00;4.00
66195;PMS7003;53000;45.182;5.736;2023-11-22T05:40:24;7.00;5.67;4.67
66195;PMS7003;53000;45.182;5.736;2023-11-22T05:42:50;5.33;5.33;4.00
66195;PMS7003;53000;45.182;5.736;2023-11-22T05:45:15;6.00;6.00;5.33
66195;PMS7003;53000;45.182;5.736;2023-11-22T05:47:41;6.67;5.67;4.33
66195;PMS7003;53000;45.182;5.736;2023-11-22T05:50:07;6.00;6.00;5.33
66195;PMS7003;53000;45.182;5.736;2023-11-22T05:52:34;8.67;6.00;5.00
66195;PMS7003;53000;45.182;5.736;2023-11-22T05:54:59;7.33;6.00;5.00
66195;PMS7003;53000;45.182;5.736;2023-11-22T05:57:29;10.67;5.00;3.00
66195;PMS7003;53000;45.182;5.736;2023-11-22T05:59:55;5.67;4.00;3.67
66195;PMS7003;53000;45.182;5.736;2023-11-22T06:02:20;5.00;4.00;3.67
66195;PMS7003;53000;45.182;5.736;2023-11-22T06:04:46;6.33;6.33;4.00
66195;PMS7003;53000;45.182;5.736;2023-11-22T06:07:11;5.00;4.67;4.00
66195;PMS7003;53000;45.182;5.736;2023-11-22T06:09:37;5.67;4.33;3.33
66195;PMS7003;53000;45.182;5.736;2023-11-22T06:12:02;8.67;6.00;4.00
66195;PMS7003;53000;45.182;5.736;2023-11-22T06:14:28;6.33;6.33;4.67
66195;PMS7003;53000;45.182;5.736;2023-11-22T06:16:53;6.00;6.00;5.00
66195;PMS7003;53000;45.182;5.736;2023-11-22T06:19:19;6.00;4.67;4.00
66195;PMS7003;53000;45.182;5.736;2023-11-22T06:21:45;8.67;6.00;5.00
66195;PMS7003;53000;45.182;5.736;2023-11-22T06:24:11;5.67;4.00;3.33
66195;PMS7003;53000;45.182;5.736;2023-11-22T06:26:41;6.33;5.67;5.00
66195;PMS7003;53000;45.182;5.736;2023-11-22T06:29:11;8.33;5.33;5.00
66195;PMS7003;53000;45.182;5.736;2023-11-22T06:31:36;7.00;6.33;5.00
66195;PMS7003;53000;45.182;5.736;2023-11-22T06:34:02;6.00;5.67;4.00
66195;PMS7003;53000;45.182;5.736;2023-11-22T06:36:27;4.00;4.00;4.00
66195;PMS7003;53000;45.182;5.736;2023-11-22T06:38:54;6.00;5.33;4.33
66195;PMS7003;53000;45.182;5.736;2023-11-22T06:41:20;4.00;4.00;3.33
66195;PMS7003;53000;45.182;5.736;2023-11-22T06:43:46;7.00;5.00;4.33
66195;PMS7003;53000;45.182;5.736;2023-11-22T06:46:15;4.00;4.00;4.00
66195;PMS7003;53000;45.182;5.736;2023-11-22T06:48:41;6.33;5.67;4.33
66195;PMS7003;53000;45.182;5.736;2023-11-22T06:51:09;5.00;5.00;4.00
66195;PMS7003;53000;45.182;5.736;2023-11-22T06:53:34;10.00;6.00;5.00
66195;PMS7003;53000;45.182;5.736;2023-11-22T06:56:00;7.33;5.00;4.33
66195;PMS7003;53000;45.182;5.736;2023-11-22T06:58:26;5.00;4.00;3.67
66195;PMS7003;53000;45.182;5.736;2023-11-22T07:00:51;4.00;4.00;3.33
66195;PMS7003;53000;45.182;5.736;2023-11-22T07:03:17;4.00;3.67;3.00
66195;PMS7003;53000;45.182;5.736;2023-11-22T07:05:42;4.00;4.00;3.33
66195;PMS7003;53000;45.182;5.736;2023-11-22T07:08:08;5.00;5.00;4.00
66195;PMS7003;53000;45.182;5.736;2023-11-22T07:10:33;6.00;5.00;3.33
66195;PMS7003;53000;45.182;5.736;2023-11-22T07:12:59;6.00;4.33;3.33
66195;PMS7003;53000;45.182;5.736;2023-11-22T07:15:26;6.33;4.67;4.00
66195;PMS7003;53000;45.182;5.736;2023-11-22T07:17:52;3.00;3.00;3.00
66195;PMS7003;53000;45.182;5.736;2023-11-22T07:20:17;4.33;4.00;3.67
66195;PMS7003;53000;45.182;5.736;2023-11-22T07:22:43;5.00;4.00;4.00
66195;PMS7003;53000;45.182;5.736;2023-11-22T07:25:09;5.00;4.00;4.00
66195;PMS7003;53000;45.182;5.736;2023-11-22T07:27:43;7.00;5.33;5.00
66195;PMS7003;53000;45.182;5.736;2023-11-22T07:30:10;6.00;6.00;4.00
66195;PMS7003;53000;45.182;5.736;2023-11-22T07:32:38;5.00;5.00;4.00
66195;PMS7003;53000;45.182;5.736;2023-11-22T07:35:04;5.00;5.00;4.00
66195;PMS7003;53000;45.182;5.736;2023-11-22T07:37:30;6.00;6.00;5.00
66195;PMS7003;53000;45.182;5.736;2023-11-22T07:39:56;6.00;3.67;3.00
66195;PMS7003;53000;45.182;5.736;2023-11-22T07:42:22;5.33;5.33;4.33
66195;PMS7003;53000;45.182;5.736;2023-11-22T07:44:47;5.33;3.67;3.67
66195;PMS7003;53000;45.182;5.736;2023-11-22T07:47:13;6.00;6.00;4.00
66195;PMS7003;53000;45.182;5.736;2023-11-22T07:49:39;6.00;4.67;4.00
66195;PMS7003;53000;45.182;5.736;2023-11-22T07:52:05;4.00;4.00;3.00
66195;PMS7003;53000;45.182;5.736;2023-11-22T07:54:31;3.00;3.00;3.00
66195;PMS7003;53000;45.182;5.736;2023-11-22T07:56:57;6.67;4.67;3.33
66195;PMS7003;53000;45.182;5.736;2023-11-22T07:59:22;5.00;5.00;4.00
66195;PMS7003;53000;45.182;5.736;2023-11-22T08:01:48;5.00;5.00;3.33
66195;PMS7003;53000;45.182;5.736;2023-11-22T08:04:14;7.67;5.00;4.00
66195;PMS7003;53000;45.182;5.736;2023-11-22T08:06:39;5.00;5.00;4.00
66195;PMS7003;53000;45.182;5.736;2023-11-22T08:09:05;2.33;1.33;1.00
66195;PMS7003;53000;45.182;5.736;2023-11-22T08:11:33;3.00;2.33;2.00
66195;PMS7003;53000;45.182;5.736;2023-11-22T08:13:59;3.67;3.67;3.00
66195;PMS7003;53000;45.182;5.736;2023-11-22T08:16:25;3.00;3.00;3.00
66195;PMS7003;53000;45.182;5.736;2023-11-22T08:18:51;4.00;4.00;3.00
66195;PMS7003;53000;45.182;5.736;2023-11-22T08:21:17;5.67;3.67;2.00
66195;PMS7003;53000;45.182;5.736;2023-11-22T08:23:43;3.33;3.33;3.00
66195;PMS7003;53000;45.182;5.736;2023-11-22T08:26:09;2.67;2.00;2.00
66195;PMS7003;53000;45.182;5.736;2023-11-22T08:28:36;3.00;3.00;2.33
66195;PMS7003;53000;45.182;5.736;2023-11-22T08:31:02;3.00;3.00;2.67
66195;PMS7003;53000;45.182;5.736;2023-11-22T08:33:29;3.00;3.00;2.00
66195;PMS7003;53000;45.182;5.736;2023-11-22T08:35:54;6.00;5.00;4.00
66195;PMS7003;53000;45.182;5.736;2023-11-22T08:38:24;4.00;3.33;3.00
66195;PMS7003;53000;45.182;5.736;2023-11-22T08:40:51;5.00;5.00;4.00
66195;PMS7003;53000;45.182;5.736;2023-11-22T08:43:17;3.67;3.67;3.00
66195;PMS7003;53000;45.182;5.736;2023-11-22T08:45:42;2.00;2.00;1.00
66195;PMS7003;53000;45.182;5.736;2023-11-22T08:48:09;5.00;4.00;4.00
66195;PMS7003;53000;45.182;5.736;2023-11-22T08:50:34;3.00;3.00;3.00
66195;PMS7003;53000;45.182;5.736;2023-11-22T08:53:00;3.33;3.33;2.33
66195;PMS7003;53000;45.182;5.736;2023-11-22T08:55:25;4.67;3.67;3.00
66195;PMS7003;53000;45.182;5.736;2023-11-22T08:57:51;4.33;3.33;2.67
66195;PMS7003;53000;45.182;5.736;2023-11-22T09:00:17;3.33;3.33;3.00
66195;PMS7003;53000;45.182;5.736;2023-11-22T09:02:47;3.33;3.33;3.00
66195;PMS7003;53000;45.182;5.736;2023-11-22T09:05:14;2.00;2.00;2.00
66195;PMS7003;53000;45.182;5.736;2023-11-22T09:07:41;2.00;2.00;2.00
66195;PMS7003;53000;45.182;5.736;2023-11-22T09:10:10;4.00;3.00;2.00
66195;PMS7003;53000;45.182;5.736;2023-11-22T09:12:41;3.33;2.00;2.00
66195;PMS7003;53000;45.182;5.736;2023-11-22T09:15:11;4.00;3.00;3.00
66195;PMS7003;53000;45.182;5.736;2023-11-22T09:17:42;3.00;3.00;2.00
66195;PMS7003;53000;45.182;5.736;2023-11-22T09:20:15;3.00;3.00;2.00
66195;PMS7003;53000;45.182;5.736;2023-11-22T09:22:45;3.33;3.33;3.00
66195;PMS7003;53000;45.182;5.736;2023-11-22T09:25:19;2.33;2.00;2.00
66195;PMS7003;53000;45.182;5.736;2023-11-22T09:27:46;3.00;3.00;2.00
66195;PMS7003;53000;45.182;5.736;2023-11-22T09:30:14;2.00;2.00;2.00
66195;PMS7003;53000;45.182;5.736;2023-11-22T09:33:16;2.00;2.00;2.00
66195;PMS7003;53000;45.182;5.736;2023-11-22T09:35:42;2.00;2.00;1.00
66195;PMS7003;53000;45.182;5.736;2023-11-22T09:38:09;2.67;2.67;2.00
66195;PMS7003;53000;45.182;5.736;2023-11-22T09:40:42;3.00;2.00;1.00
66195;PMS7003;53000;45.182;5.736;2023-11-22T09:43:08;3.00;1.00;1.00
66195;PMS7003;53000;45.182;5.736;2023-11-22T09:45:34;1.67;1.67;1.33
66195;PMS7003;53000;45.182;5.736;2023-11-22T09:48:00;3.00;2.00;2.00
66195;PMS7003;53000;45.182;5.736;2023-11-22T09:50:42;2.00;2.00;1.33
66195;PMS7003;53000;45.182;5.736;2023-11-22T09:53:33;2.67;2.67;2.00
66195;PMS7003;53000;45.182;5.736;2023-11-22T09:55:59;2.33;2.33;2.00
66195;PMS7003;53000;45.182;5.736;2023-11-22T09:58:32;2.00;2.00;2.00
66195;PMS7003;53000;45.182;5.736;2023-11-22T10:00:59;2.00;2.00;1.00
66195;PMS7003;53000;45.182;5.736;2023-11-22T10:03:28;1.00;1.00;1.00
66195;PMS7003;53000;45.182;5.736;2023-11-22T10:05:57;1.00;1.00;1.00
66195;PMS7003;53000;45.182;5.736;2023-11-22T10:08:29;2.00;2.00;2.00
66195;PMS7003;53000;45.182;5.736;2023-11-22T10:10:57;2.00;2.00;1.67
66195;PMS7003;53000;45.182;5.736;2023-11-22T10:13:24;2.33;2.33;1.33
66195;PMS7003;53000;45.182;5.736;2023-11-22T10:15:50;3.67;3.67;3.00
66195;PMS7003;53000;45.182;5.736;2023-11-22T10:18:19;4.00;2.67;2.67
66195;PMS7003;53000;45.182;5.736;2023-11-22T10:20:46;2.00;2.00;2.00
66195;PMS7003;53000;45.182;5.736;2023-11-22T10:23:13;0.00;0.00;0.00
66195;PMS7003;53000;45.182;5.736;2023-11-22T10:25:46;2.67;2.67;2.33
66195;PMS7003;53000;45.182;5.736;2023-11-22T10:28:15;2.00;2.00;2.00
66195;PMS7003;53000;45.182;5.736;2023-11-22T10:30:43;1.00;1.00;1.00
66195;PMS7003;53000;45.182;5.736;2023-11-22T10:33:09;5.00;2.67;2.00
66195;PMS7003;53000;45.182;5.736;2023-11-22T10:35:39;2.00;2.00;2.00
66195;PMS7003;53000;45.182;5.736;2023-11-22T10:38:13;2.00;2.00;1.33
66195;PMS7003;53000;45.182;5.736;2023-11-22T10:40:41;3.00;2.00;1.67
66195;PMS7003;53000;45.182;5.736;2023-11-22T10:43:10;3.33;2.67;2.33
66195;PMS7003;53000;45.182;5.736;2023-11-22T10:45:37;3.00;2.00;1.00
66195;PMS7003;53000;45.182;5.736;2023-11-22T10:48:04;2.00;2.00;2.00
66195;PMS7003;53000;45.182;5.736;2023-11-22T10:50:31;3.00;3.00;2.67
66195;PMS7003;53000;45.182;5.736;2023-11-22T10:52:57;1.00;1.00;0.00
66195;PMS7003;53000;45.182;5.736;2023-11-22T10:55:28;1.33;0.00;0.00
66195;PMS7003;53000;45.182;5.736;2023-11-22T10:58:00;1.33;1.33;1.33
66195;PMS7003;53000;45.182;5.736;2023-11-22T11:00:28;1.33;1.33;1.00
66195;PMS7003;53000;45.182;5.736;2023-11-22T11:02:59;3.00;3.00;2.00
66195;PMS7003;53000;45.182;5.736;2023-11-22T11:05:30;4.00;4.00;3.00
66195;PMS7003;53000;45.182;5.736;2023-11-22T11:08:08;2.67;2.67;2.67
66195;PMS7003;53000;45.182;5.736;2023-11-22T11:10:40;2.33;2.33;2.00
66195;PMS7003;53000;45.182;5.736;2023-11-22T11:13:08;5.00;3.00;2.00
66195;PMS7003;53000;45.182;5.736;2023-11-22T11:15:35;1.67;1.00;0.00
66195;PMS7003;53000;45.182;5.736;2023-11-22T11:18:03;5.00;5.00;4.00
66195;PMS7003;53000;45.182;5.736;2023-11-22T11:20:33;3.67;3.67;3.00
66195;PMS7003;53000;45.182;5.736;2023-11-22T11:23:12;3.00;3.00;3.00
66195;PMS7003;53000;45.182;5.736;2023-11-22T11:25:39;3.00;2.00;2.00
66195;PMS7003;53000;45.182;5.736;2023-11-22T11:28:09;2.00;1.67;1.00
66195;PMS7003;53000;45.182;5.736;2023-11-22T11:30:40;5.33;2.67;2.00
66195;PMS7003;53000;45.182;5.736;2023-11-22T11:33:08;2.00;2.00;2.00
66195;PMS7003;53000;45.182;5.736;2023-11-22T11:35:52;2.33;2.00;1.67
66195;PMS7003;53000;45.182;5.736;2023-11-22T11:38:21;1.00;1.00;1.00
66195;PMS7003;53000;45.182;5.736;2023-11-22T11:40:55;3.00;3.00;2.33
66195;PMS7003;53000;45.182;5.736;2023-11-22T11:43:21;3.33;3.00;2.33
66195;PMS7003;53000;45.182;5.736;2023-11-22T11:46:13;2.00;2.00;2.00
66195;PMS7003;53000;45.182;5.736;2023-11-22T11:48:49;1.00;1.00;1.00
66195;PMS7003;53000;45.182;5.736;2023-11-22T11:51:19;3.00;2.00;1.00
66195;PMS7003;53000;45.182;5.736;2023-11-22T11:53:51;2.67;2.00;2.00
66195;PMS7003;53000;45.182;5.736;2023-11-22T11:56:17;1.33;1.33;1.33
66195;PMS7003;53000;45.182;5.736;2023-11-22T11:58:43;4.00;2.00;2.00
66195;PMS7003;53000;45.182;5.736;2023-11-22T12:01:13;2.67;2.00;1.67
66195;PMS7003;53000;45.182;5.736;2023-11-22T12:03:39;3.00;3.00;2.00
66195;PMS7003;53000;45.182;5.736;2023-11-22T12:06:06;1.00;1.00;1.00
66195;PMS7003;53000;45.182;5.736;2023-11-22T12:08:31;2.00;2.00;1.00
66195;PMS7003;53000;45.182;5.736;2023-11-22T12:11:01;1.00;1.00;1.00
66195;PMS7003;53000;45.182;5.736;2023-11-22T12:13:28;2.00;1.67;1.00
66195;PMS7003;53000;45.182;5.736;2023-11-22T12:15:53;2.33;2.00;1.00
66195;PMS7003;53000;45.182;5.736;2023-11-22T12:18:19;3.00;2.00;1.00
66195;PMS7003;53000;45.182;5.736;2023-11-22T12:21:18;1.67;1.00;1.00
66195;PMS7003;53000;45.182;5.736;2023-11-22T12:23:40;2.00;2.00;1.67
66195;PMS7003;53000;45.182;5.736;2023-11-22T12:26:09;3.00;2.00;1.33
66195;PMS7003;53000;45.182;5.736;2023-11-22T12:28:37;1.00;1.00;1.00
66195;PMS7003;53000;45.182;5.736;2023-11-22T12:31:08;1.67;1.67;1.00
66195;PMS7003;53000;45.182;5.736;2023-11-22T12:33:37;0.67;0.67;0.67
66195;PMS7003;53000;45.182;5.736;2023-11-22T12:36:05;3.00;2.00;2.00
66195;PMS7003;53000;45.182;5.736;2023-11-22T12:38:34;2.00;1.00;1.00
66195;PMS7003;53000;45.182;5.736;2023-11-22T12:41:00;2.33;2.00;1.00
66195;PMS7003;53000;45.182;5.736;2023-11-22T12:43:28;0.00;0.00;0.00
66195;PMS7003;53000;45.182;5.736;2023-11-22T12:46:04;1.00;1.00;1.00
66195;PMS7003;53000;45.182;5.736;2023-11-22T12:48:41;1.33;1.00;1.00
66195;PMS7003;53000;45.182;5.736;2023-11-22T12:51:16;2.00;1.00;1.00
66195;PMS7003;53000;45.182;5.736;2023-11-22T12:53:42;1.00;1.00;1.00
66195;PMS7003;53000;45.182;5.736;2023-11-22T12:56:11;1.33;1.00;1.00
66195;PMS7003;53000;45.182;5.736;2023-11-22T12:58:36;1.00;0.33;0.33
66195;PMS7003;53000;45.182;5.736;2023-11-22T13:01:02;2.00;1.00;1.00
66195;PMS7003;53000;45.182;5.736;2023-11-22T13:03:28;1.00;1.00;1.00
66195;PMS7003;53000;45.182;5.736;2023-11-22T13:05:53;0.00;0.00;0.00
66195;PMS7003;53000;45.182;5.736;2023-11-22T13:08:20;1.00;1.00;1.00
66195;PMS7003;53000;45.182;5.736;2023-11-22T13:10:47;1.00;1.00;0.67
66195;PMS7003;53000;45.182;5.736;2023-11-22T13:13:22;1.00;0.00;0.00
66195;PMS7003;53000;45.182;5.736;2023-11-22T13:15:49;1.00;1.00;1.00
66195;PMS7003;53000;45.182;5.736;2023-11-22T13:18:15;1.00;1.00;1.00
66195;PMS7003;53000;45.182;5.736;2023-11-22T13:20:41;0.00;0.00;0.00
66195;PMS7003;53000;45.182;5.736;2023-11-22T13:23:07;1.00;1.00;1.00
66195;PMS7003;53000;45.182;5.736;2023-11-22T13:25:33;0.67;0.67;0.00
66195;PMS7003;53000;45.182;5.736;2023-11-22T13:27:59;2.00;1.00;1.00
66195;PMS7003;53000;45.182;5.736;2023-11-22T13:30:24;1.00;1.00;1.00
66195;PMS7003;53000;45.182;5.736;2023-11-22T13:32:52;1.00;0.00;0.00
66195;PMS7003;53000;45.182;5.736;2023-11-22T13:35:19;2.67;2.00;2.00
66195;PMS7003;53000;45.182;5.736;2023-11-22T13:37:44;1.00;1.00;1.00
66195;PMS7003;53000;45.182;5.736;2023-11-22T13:40:11;2.00;2.00;2.00
66195;PMS7003;53000;45.182;5.736;2023-11-22T13:42:41;1.00;1.00;1.00
66195;PMS7003;53000;45.182;5.736;2023-11-22T13:45:07;1.00;1.00;1.00
66195;PMS7003;53000;45.182;5.736;2023-11-22T13:47:33;1.00;1.00;1.00
66195;PMS7003;53000;45.182;5.736;2023-11-22T13:49:58;1.33;0.33;0.00
66195;PMS7003;53000;45.182;5.736;2023-11-22T13:52:24;1.00;1.00;1.00
66195;PMS7003;53000;45.182;5.736;2023-11-22T13:54:50;0.00;0.00;0.00
66195;PMS7003;53000;45.182;5.736;2023-11-22T13:57:20;2.00;1.00;1.00
66195;PMS7003;53000;45.182;5.736;2023-11-22T13:59:45;1.00;1.00;1.00
66195;PMS7003;53000;45.182;5.736;2023-11-22T14:02:10;0.00;0.00;0.00
66195;PMS7003;53000;45.182;5.736;2023-11-22T14:04:36;1.00;1.00;1.00
66195;PMS7003;53000;45.182;5.736;2023-11-22T14:07:01;0.00;0.00;0.00
66195;PMS7003;53000;45.182;5.736;2023-11-22T14:09:26;1.00;1.00;1.00
66195;PMS7003;53000;45.182;5.736;2023-11-22T14:11:52;1.00;1.00;0.00
66195;PMS7003;53000;45.182;5.736;2023-11-22T14:14:18;2.00;2.00;1.67
66195;PMS7003;53000;45.182;5.736;2023-11-22T14:16:44;3.00;1.33;1.00
66195;PMS7003;53000;45.182;5.736;2023-11-22T14:19:10;1.00;1.00;1.00
66195;PMS7003;53000;45.182;5.736;2023-11-22T14:21:36;1.00;1.00;1.00
66195;PMS7003;53000;45.182;5.736;2023-11-22T14:24:02;2.33;2.00;2.00